sensor_id;sensor_type;location;lat;lon;timestamp;P1;durP1;ratioP1;P2;durP2;ratioP2
7823;SDS011;3957;48.61947800;9.05303100;2022-07-05T00:00:38;3.95;;;1.63;;
7823;SDS011;3957;48.61947800;9.05303100;2022-07-05T00:01:59;1.58;;;1.48;;
7823;SDS011;3957;48.61947800;9.05303100;2022-07-05T00:03:20;1.70;;;1.60;;
7823;SDS011;3957;48.61947800;9.05303100;2022-07-05T00:04:41;1.57;;;1.47;;
7823;SDS011;3957;48.61947800;9.05303100;2022-07-05T00:06:02;2.05;;;1.60;;
7823;SDS011;3957;48.61947800;9.05303100;2022-07-05T00:07:23;1.85;;;1.52;;
7823;SDS011;3957;48.61947800;9.05303100;2022-07-05T00:08:44;2.25;;;1.67;;
7823;SDS011;3957;48.61947800;9.05303100;2022-07-05T00:10:05;2.15;;;1.58;;
7823;SDS011;3957;48.61947800;9.05303100;2022-07-05T00:11:26;2.75;;;1.40;;
7823;SDS011;3957;48.61947800;9.05303100;2022-07-05T00:12:46;4.60;;;1.60;;
7823;SDS011;3957;48.61947800;9.05303100;2022-07-05T00:14:07;1.70;;;1.40;;
7823;SDS011;3957;48.61947800;9.05303100;2022-07-05T00:15:28;1.50;;;1.40;;
7823;SDS011;3957;48.61947800;9.05303100;2022-07-05T00:16:49;2.05;;;1.50;;
7823;SDS011;3957;48.61947800;9.05303100;2022-07-05T00:18:09;3.10;;;1.60;;
7823;SDS011;3957;48.61947800;9.05303100;2022-07-05T00:19:30;2.00;;;1.50;;
7823;SDS011;3957;48.61947800;9.05303100;2022-07-05T00:20:51;2.55;;;1.70;;
7823;SDS011;3957;48.61947800;9.05303100;2022-07-05T00:22:12;1.40;;;1.30;;
7823;SDS011;3957;48.61947800;9.05303100;2022-07-05T00:23:33;1.55;;;1.45;;
7823;SDS011;3957;48.61947800;9.05303100;2022-07-05T00:24:53;1.40;;;1.30;;
7823;SDS011;3957;48.61947800;9.05303100;2022-07-05T00:26:14;2.95;;;1.40;;
7823;SDS011;3957;48.61947800;9.05303100;2022-07-05T00:27:35;1.30;;;1.20;;
7823;SDS011;3957;48.61947800;9.05303100;2022-07-05T00:28:56;1.45;;;1.35;;
7823;SDS011;3957;48.61947800;9.05303100;2022-07-05T00:30:16;3.40;;;1.20;;
7823;SDS011;3957;48.61947800;9.05303100;2022-07-05T00:31:37;1.30;;;1.20;;
7823;SDS011;3957;48.61947800;9.05303100;2022-07-05T00:32:58;1.30;;;1.20;;
7823;SDS011;3957;48.61947800;9.05303100;2022-07-05T00:34:19;4.95;;;1.40;;
7823;SDS011;3957;48.61947800;9.05303100;2022-07-05T00:35:39;3.20;;;1.30;;
7823;SDS011;3957;48.61947800;9.05303100;2022-07-05T00:37:00;2.73;;;1.50;;
7823;SDS011;3957;48.61947800;9.05303100;2022-07-05T00:38:21;3.70;;;1.27;;
7823;SDS011;3957;48.61947800;9.05303100;2022-07-05T00:39:43;1.40;;;1.30;;
7823;SDS011;3957;48.61947800;9.05303100;2022-07-05T00:41:03;1.38;;;1.20;;
7823;SDS011;3957;48.61947800;9.05303100;2022-07-05T00:42:24;1.58;;;1.20;;
7823;SDS011;3957;48.61947800;9.05303100;2022-07-05T00:43:52;2.30;;;1.40;;
7823;SDS011;3957;48.61947800;9.05303100;2022-07-05T00:45:21;1.90;;;1.20;;
7823;SDS011;3957;48.61947800;9.05303100;2022-07-05T00:46:43;4.15;;;1.35;;
7823;SDS011;3957;48.61947800;9.05303100;2022-07-05T00:48:04;2.30;;;1.30;;
7823;SDS011;3957;48.61947800;9.05303100;2022-07-05T00:49:25;2.00;;;1.10;;
7823;SDS011;3957;48.61947800;9.05303100;2022-07-05T00:50:46;2.13;;;1.35;;
7823;SDS011;3957;48.61947800;9.05303100;2022-07-05T00:52:07;2.80;;;1.50;;
7823;SDS011;3957;48.61947800;9.05303100;2022-07-05T00:53:28;1.70;;;1.60;;
7823;SDS011;3957;48.61947800;9.05303100;2022-07-05T00:54:49;1.92;;;1.40;;
7823;SDS011;3957;48.61947800;9.05303100;2022-07-05T00:56:10;1.73;;;1.55;;
7823;SDS011;3957;48.61947800;9.05303100;2022-07-05T00:57:32;2.30;;;1.60;;
7823;SDS011;3957;48.61947800;9.05303100;2022-07-05T00:58:54;1.40;;;1.30;;
7823;SDS011;3957;48.61947800;9.05303100;2022-07-05T01:00:15;1.95;;;1.20;;
7823;SDS011;3957;48.61947800;9.05303100;2022-07-05T01:01:36;2.28;;;1.40;;
7823;SDS011;3957;48.61947800;9.05303100;2022-07-05T01:02:56;1.50;;;1.15;;
7823;SDS011;3957;48.61947800;9.05303100;2022-07-05T01:04:17;1.60;;;1.10;;
7823;SDS011;3957;48.61947800;9.05303100;2022-07-05T01:05:38;1.90;;;1.27;;
7823;SDS011;3957;48.61947800;9.05303100;2022-07-05T01:06:59;2.00;;;1.60;;
7823;SDS011;3957;48.61947800;9.05303100;2022-07-05T01:08:21;1.55;;;1.45;;
7823;SDS011;3957;48.61947800;9.05303100;2022-07-05T01:09:44;1.60;;;1.50;;
7823;SDS011;3957;48.61947800;9.05303100;2022-07-05T01:11:05;1.85;;;1.40;;
7823;SDS011;3957;48.61947800;9.05303100;2022-07-05T01:12:26;1.70;;;1.20;;
7823;SDS011;3957;48.61947800;9.05303100;2022-07-05T01:13:47;1.65;;;1.23;;
7823;SDS011;3957;48.61947800;9.05303100;2022-07-05T01:15:08;1.52;;;1.40;;
7823;SDS011;3957;48.61947800;9.05303100;2022-07-05T01:16:29;1.55;;;1.30;;
7823;SDS011;3957;48.61947800;9.05303100;2022-07-05T01:17:50;1.40;;;1.20;;
7823;SDS011;3957;48.61947800;9.05303100;2022-07-05T01:19:12;1.27;;;1.20;;
7823;SDS011;3957;48.61947800;9.05303100;2022-07-05T01:20:33;1.45;;;1.35;;
7823;SDS011;3957;48.61947800;9.05303100;2022-07-05T01:21:55;1.63;;;1.50;;
7823;SDS011;3957;48.61947800;9.05303100;2022-07-05T01:23:18;1.63;;;1.52;;
7823;SDS011;3957;48.61947800;9.05303100;2022-07-05T01:24:39;2.40;;;1.55;;
7823;SDS011;3957;48.61947800;9.05303100;2022-07-05T01:26:01;1.65;;;1.55;;
7823;SDS011;3957;48.61947800;9.05303100;2022-07-05T01:27:22;2.13;;;2.00;;
7823;SDS011;3957;48.61947800;9.05303100;2022-07-05T01:28:43;2.85;;;1.70;;
7823;SDS011;3957;48.61947800;9.05303100;2022-07-05T01:30:04;5.75;;;1.70;;
7823;SDS011;3957;48.61947800;9.05303100;2022-07-05T01:31:26;3.00;;;1.67;;
7823;SDS011;3957;48.61947800;9.05303100;2022-07-05T01:32:47;1.55;;;1.45;;
7823;SDS011;3957;48.61947800;9.05303100;2022-07-05T01:34:09;2.78;;;1.52;;
7823;SDS011;3957;48.61947800;9.05303100;2022-07-05T01:35:30;3.33;;;1.70;;
7823;SDS011;3957;48.61947800;9.05303100;2022-07-05T01:36:51;1.77;;;1.67;;
7823;SDS011;3957;48.61947800;9.05303100;2022-07-05T01:38:11;1.75;;;1.30;;
7823;SDS011;3957;48.61947800;9.05303100;2022-07-05T01:39:32;1.73;;;1.48;;
7823;SDS011;3957;48.61947800;9.05303100;2022-07-05T01:40:53;1.90;;;1.70;;
7823;SDS011;3957;48.61947800;9.05303100;2022-07-05T01:42:14;3.75;;;1.95;;
7823;SDS011;3957;48.61947800;9.05303100;2022-07-05T01:43:35;1.83;;;1.67;;
7823;SDS011;3957;48.61947800;9.05303100;2022-07-05T01:44:56;2.22;;;1.55;;
7823;SDS011;3957;48.61947800;9.05303100;2022-07-05T01:46:17;1.80;;;1.70;;
7823;SDS011;3957;48.61947800;9.05303100;2022-07-05T01:47:42;1.80;;;1.70;;
7823;SDS011;3957;48.61947800;9.05303100;2022-07-05T01:49:12;1.60;;;1.50;;
7823;SDS011;3957;48.61947800;9.05303100;2022-07-05T01:50:45;1.75;;;1.63;;
7823;SDS011;3957;48.61947800;9.05303100;2022-07-05T01:52:09;2.60;;;1.65;;
7823;SDS011;3957;48.61947800;9.05303100;2022-07-05T01:53:33;1.80;;;1.60;;
7823;SDS011;3957;48.61947800;9.05303100;2022-07-05T01:54:54;1.70;;;1.60;;
7823;SDS011;3957;48.61947800;9.05303100;2022-07-05T01:56:14;1.42;;;1.33;;
7823;SDS011;3957;48.61947800;9.05303100;2022-07-05T01:57:35;2.28;;;1.52;;
7823;SDS011;3957;48.61947800;9.05303100;2022-07-05T01:58:56;2.05;;;1.85;;
7823;SDS011;3957;48.61947800;9.05303100;2022-07-05T02:00:19;2.60;;;1.70;;
7823;SDS011;3957;48.61947800;9.05303100;2022-07-05T02:01:40;1.50;;;1.40;;
7823;SDS011;3957;48.61947800;9.05303100;2022-07-05T02:03:01;1.92;;;1.50;;
7823;SDS011;3957;48.61947800;9.05303100;2022-07-05T02:04:21;2.67;;;1.50;;
7823;SDS011;3957;48.61947800;9.05303100;2022-07-05T02:05:42;1.80;;;1.40;;
7823;SDS011;3957;48.61947800;9.05303100;2022-07-05T02:07:08;2.10;;;1.60;;
7823;SDS011;3957;48.61947800;9.05303100;2022-07-05T02:08:31;1.50;;;1.40;;
7823;SDS011;3957;48.61947800;9.05303100;2022-07-05T02:09:51;1.52;;;1.30;;
7823;SDS011;3957;48.61947800;9.05303100;2022-07-05T02:11:12;2.08;;;1.42;;
7823;SDS011;3957;48.61947800;9.05303100;2022-07-05T02:12:33;1.70;;;1.40;;
7823;SDS011;3957;48.61947800;9.05303100;2022-07-05T02:13:54;2.20;;;1.20;;
7823;SDS011;3957;48.61947800;9.05303100;2022-07-05T02:15:15;1.77;;;1.30;;
7823;SDS011;3957;48.61947800;9.05303100;2022-07-05T02:16:36;3.17;;;1.30;;
7823;SDS011;3957;48.61947800;9.05303100;2022-07-05T02:17:57;1.60;;;1.50;;
7823;SDS011;3957;48.61947800;9.05303100;2022-07-05T02:19:17;1.42;;;1.33;;
7823;SDS011;3957;48.61947800;9.05303100;2022-07-05T02:20:39;1.40;;;1.30;;
7823;SDS011;3957;48.61947800;9.05303100;2022-07-05T02:22:01;1.00;;;1.00;;
7823;SDS011;3957;48.61947800;9.05303100;2022-07-05T02:23:22;1.75;;;1.48;;
7823;SDS011;3957;48.61947800;9.05303100;2022-07-05T02:24:43;1.95;;;1.30;;
7823;SDS011;3957;48.61947800;9.05303100;2022-07-05T02:26:11;1.50;;;1.30;;
7823;SDS011;3957;48.61947800;9.05303100;2022-07-05T02:27:33;1.90;;;1.30;;
7823;SDS011;3957;48.61947800;9.05303100;2022-07-05T02:28:54;1.60;;;1.30;;
7823;SDS011;3957;48.61947800;9.05303100;2022-07-05T02:30:15;3.75;;;1.48;;
7823;SDS011;3957;48.61947800;9.05303100;2022-07-05T02:31:36;1.70;;;1.40;;
7823;SDS011;3957;48.61947800;9.05303100;2022-07-05T02:32:58;1.65;;;1.23;;
7823;SDS011;3957;48.61947800;9.05303100;2022-07-05T02:34:20;1.40;;;1.30;;
7823;SDS011;3957;48.61947800;9.05303100;2022-07-05T02:35:41;1.30;;;1.20;;
7823;SDS011;3957;48.61947800;9.05303100;2022-07-05T02:37:02;2.53;;;1.40;;
7823;SDS011;3957;48.61947800;9.05303100;2022-07-05T02:38:23;1.65;;;1.50;;
7823;SDS011;3957;48.61947800;9.05303100;2022-07-05T02:39:44;1.30;;;1.20;;
7823;SDS011;3957;48.61947800;9.05303100;2022-07-05T02:41:06;3.45;;;1.48;;
7823;SDS011;3957;48.61947800;9.05303100;2022-07-05T02:42:29;1.65;;;1.55;;
7823;SDS011;3957;48.61947800;9.05303100;2022-07-05T02:43:50;1.88;;;1.45;;
7823;SDS011;3957;48.61947800;9.05303100;2022-07-05T02:45:14;1.65;;;1.40;;
7823;SDS011;3957;48.61947800;9.05303100;2022-07-05T02:46:37;1.42;;;1.33;;
7823;SDS011;3957;48.61947800;9.05303100;2022-07-05T02:47:58;1.30;;;1.20;;
7823;SDS011;3957;48.61947800;9.05303100;2022-07-05T02:49:21;1.42;;;1.15;;
7823;SDS011;3957;48.61947800;9.05303100;2022-07-05T02:50:42;1.92;;;1.33;;
7823;SDS011;3957;48.61947800;9.05303100;2022-07-05T02:52:03;2.58;;;1.60;;
7823;SDS011;3957;48.61947800;9.05303100;2022-07-05T02:53:25;1.85;;;1.40;;
7823;SDS011;3957;48.61947800;9.05303100;2022-07-05T02:54:46;2.35;;;1.48;;
7823;SDS011;3957;48.61947800;9.05303100;2022-07-05T02:56:07;1.60;;;1.45;;
7823;SDS011;3957;48.61947800;9.05303100;2022-07-05T02:57:27;1.50;;;1.40;;
7823;SDS011;3957;48.61947800;9.05303100;2022-07-05T02:58:48;2.65;;;1.40;;
7823;SDS011;3957;48.61947800;9.05303100;2022-07-05T03:00:10;1.67;;;1.20;;
7823;SDS011;3957;48.61947800;9.05303100;2022-07-05T03:01:38;1.65;;;1.48;;
7823;SDS011;3957;48.61947800;9.05303100;2022-07-05T03:03:03;1.40;;;1.30;;
7823;SDS011;3957;48.61947800;9.05303100;2022-07-05T03:04:25;2.10;;;1.40;;
7823;SDS011;3957;48.61947800;9.05303100;2022-07-05T03:05:49;1.48;;;1.38;;
7823;SDS011;3957;48.61947800;9.05303100;2022-07-05T03:07:10;2.10;;;1.40;;
7823;SDS011;3957;48.61947800;9.05303100;2022-07-05T03:08:31;1.33;;;1.23;;
7823;SDS011;3957;48.61947800;9.05303100;2022-07-05T03:09:52;1.73;;;1.40;;
7823;SDS011;3957;48.61947800;9.05303100;2022-07-05T03:11:13;1.38;;;1.27;;
7823;SDS011;3957;48.61947800;9.05303100;2022-07-05T03:12:34;1.77;;;1.25;;
7823;SDS011;3957;48.61947800;9.05303100;2022-07-05T03:13:56;1.65;;;1.50;;
7823;SDS011;3957;48.61947800;9.05303100;2022-07-05T03:15:17;1.42;;;1.33;;
7823;SDS011;3957;48.61947800;9.05303100;2022-07-05T03:16:38;2.15;;;1.42;;
7823;SDS011;3957;48.61947800;9.05303100;2022-07-05T03:18:00;2.80;;;1.40;;
7823;SDS011;3957;48.61947800;9.05303100;2022-07-05T03:19:23;1.98;;;1.23;;
7823;SDS011;3957;48.61947800;9.05303100;2022-07-05T03:20:44;1.48;;;1.38;;
7823;SDS011;3957;48.61947800;9.05303100;2022-07-05T03:22:05;1.73;;;1.33;;
7823;SDS011;3957;48.61947800;9.05303100;2022-07-05T03:23:28;1.80;;;1.35;;
7823;SDS011;3957;48.61947800;9.05303100;2022-07-05T03:24:51;1.35;;;1.25;;
7823;SDS011;3957;48.61947800;9.05303100;2022-07-05T03:26:12;1.60;;;1.50;;
7823;SDS011;3957;48.61947800;9.05303100;2022-07-05T03:27:33;1.63;;;1.33;;
7823;SDS011;3957;48.61947800;9.05303100;2022-07-05T03:28:54;1.60;;;1.50;;
7823;SDS011;3957;48.61947800;9.05303100;2022-07-05T03:30:15;1.33;;;1.23;;
7823;SDS011;3957;48.61947800;9.05303100;2022-07-05T03:31:36;3.00;;;1.42;;
7823;SDS011;3957;48.61947800;9.05303100;2022-07-05T03:32:59;1.50;;;1.40;;
7823;SDS011;3957;48.61947800;9.05303100;2022-07-05T03:34:22;1.92;;;1.20;;
7823;SDS011;3957;48.61947800;9.05303100;2022-07-05T03:35:43;1.98;;;1.60;;
7823;SDS011;3957;48.61947800;9.05303100;2022-07-05T03:37:05;1.77;;;1.45;;
7823;SDS011;3957;48.61947800;9.05303100;2022-07-05T03:38:26;1.58;;;1.48;;
7823;SDS011;3957;48.61947800;9.05303100;2022-07-05T03:39:47;2.55;;;1.35;;
7823;SDS011;3957;48.61947800;9.05303100;2022-07-05T03:41:08;4.10;;;1.60;;
7823;SDS011;3957;48.61947800;9.05303100;2022-07-05T03:42:29;2.30;;;1.50;;
7823;SDS011;3957;48.61947800;9.05303100;2022-07-05T03:43:50;1.77;;;1.65;;
7823;SDS011;3957;48.61947800;9.05303100;2022-07-05T03:45:11;4.15;;;1.42;;
7823;SDS011;3957;48.61947800;9.05303100;2022-07-05T03:46:33;1.95;;;1.63;;
7823;SDS011;3957;48.61947800;9.05303100;2022-07-05T03:47:58;1.75;;;1.50;;
7823;SDS011;3957;48.61947800;9.05303100;2022-07-05T03:49:19;1.67;;;1.58;;
7823;SDS011;3957;48.61947800;9.05303100;2022-07-05T03:50:41;1.80;;;1.60;;
7823;SDS011;3957;48.61947800;9.05303100;2022-07-05T03:52:02;1.77;;;1.60;;
7823;SDS011;3957;48.61947800;9.05303100;2022-07-05T03:53:23;1.83;;;1.42;;
7823;SDS011;3957;48.61947800;9.05303100;2022-07-05T03:54:44;2.20;;;1.70;;
7823;SDS011;3957;48.61947800;9.05303100;2022-07-05T03:56:05;1.70;;;1.30;;
7823;SDS011;3957;48.61947800;9.05303100;2022-07-05T03:57:26;2.53;;;1.45;;
7823;SDS011;3957;48.61947800;9.05303100;2022-07-05T03:58:47;1.30;;;1.20;;
7823;SDS011;3957;48.61947800;9.05303100;2022-07-05T04:00:08;2.17;;;1.55;;
7823;SDS011;3957;48.61947800;9.05303100;2022-07-05T04:01:42;1.60;;;1.50;;
7823;SDS011;3957;48.61947800;9.05303100;2022-07-05T04:03:02;2.30;;;1.63;;
7823;SDS011;3957;48.61947800;9.05303100;2022-07-05T04:04:24;1.40;;;1.30;;
7823;SDS011;3957;48.61947800;9.05303100;2022-07-05T04:05:45;1.60;;;1.50;;
7823;SDS011;3957;48.61947800;9.05303100;2022-07-05T04:07:05;1.65;;;1.52;;
7823;SDS011;3957;48.61947800;9.05303100;2022-07-05T04:08:28;1.67;;;1.58;;
7823;SDS011;3957;48.61947800;9.05303100;2022-07-05T04:09:50;1.88;;;1.33;;
7823;SDS011;3957;48.61947800;9.05303100;2022-07-05T04:11:10;2.05;;;1.40;;
7823;SDS011;3957;48.61947800;9.05303100;2022-07-05T04:12:34;1.90;;;1.40;;
7823;SDS011;3957;48.61947800;9.05303100;2022-07-05T04:13:55;1.70;;;1.60;;
7823;SDS011;3957;48.61947800;9.05303100;2022-07-05T04:15:16;1.52;;;1.30;;
7823;SDS011;3957;48.61947800;9.05303100;2022-07-05T04:16:37;2.17;;;1.40;;
7823;SDS011;3957;48.61947800;9.05303100;2022-07-05T04:17:58;2.00;;;1.40;;
7823;SDS011;3957;48.61947800;9.05303100;2022-07-05T04:19:22;1.88;;;1.33;;
7823;SDS011;3957;48.61947800;9.05303100;2022-07-05T04:20:43;1.73;;;1.30;;
7823;SDS011;3957;48.61947800;9.05303100;2022-07-05T04:22:06;1.40;;;1.30;;
7823;SDS011;3957;48.61947800;9.05303100;2022-07-05T04:23:27;2.40;;;1.30;;
7823;SDS011;3957;48.61947800;9.05303100;2022-07-05T04:24:48;1.35;;;1.25;;
7823;SDS011;3957;48.61947800;9.05303100;2022-07-05T04:26:28;1.77;;;1.48;;
7823;SDS011;3957;48.61947800;9.05303100;2022-07-05T04:27:50;1.60;;;1.27;;
7823;SDS011;3957;48.61947800;9.05303100;2022-07-05T04:29:13;1.45;;;1.13;;
7823;SDS011;3957;48.61947800;9.05303100;2022-07-05T04:30:34;2.63;;;1.13;;
7823;SDS011;3957;48.61947800;9.05303100;2022-07-05T04:31:55;2.10;;;1.20;;
7823;SDS011;3957;48.61947800;9.05303100;2022-07-05T04:33:17;2.20;;;1.20;;
7823;SDS011;3957;48.61947800;9.05303100;2022-07-05T04:34:40;1.33;;;1.00;;
7823;SDS011;3957;48.61947800;9.05303100;2022-07-05T04:36:02;1.15;;;0.90;;
7823;SDS011;3957;48.61947800;9.05303100;2022-07-05T04:37:24;3.08;;;1.30;;
7823;SDS011;3957;48.61947800;9.05303100;2022-07-05T04:38:45;1.23;;;0.90;;
7823;SDS011;3957;48.61947800;9.05303100;2022-07-05T04:40:08;2.47;;;1.15;;
7823;SDS011;3957;48.61947800;9.05303100;2022-07-05T04:41:31;2.58;;;1.40;;
7823;SDS011;3957;48.61947800;9.05303100;2022-07-05T04:42:51;1.80;;;1.13;;
7823;SDS011;3957;48.61947800;9.05303100;2022-07-05T04:44:13;2.40;;;1.40;;
7823;SDS011;3957;48.61947800;9.05303100;2022-07-05T04:45:35;1.02;;;1.02;;
7823;SDS011;3957;48.61947800;9.05303100;2022-07-05T04:46:56;2.70;;;1.40;;
7823;SDS011;3957;48.61947800;9.05303100;2022-07-05T04:48:16;1.20;;;1.10;;
7823;SDS011;3957;48.61947800;9.05303100;2022-07-05T04:49:37;1.38;;;1.00;;
7823;SDS011;3957;48.61947800;9.05303100;2022-07-05T04:50:58;1.48;;;1.17;;
7823;SDS011;3957;48.61947800;9.05303100;2022-07-05T04:52:20;1.52;;;1.23;;
7823;SDS011;3957;48.61947800;9.05303100;2022-07-05T04:53:41;2.22;;;1.20;;
7823;SDS011;3957;48.61947800;9.05303100;2022-07-05T04:55:02;2.23;;;0.90;;
7823;SDS011;3957;48.61947800;9.05303100;2022-07-05T04:56:23;2.58;;;1.23;;
7823;SDS011;3957;48.61947800;9.05303100;2022-07-05T04:57:44;0.90;;;0.90;;
7823;SDS011;3957;48.61947800;9.05303100;2022-07-05T04:59:05;2.15;;;1.15;;
7823;SDS011;3957;48.61947800;9.05303100;2022-07-05T05:00:26;1.67;;;1.10;;
7823;SDS011;3957;48.61947800;9.05303100;2022-07-05T05:01:46;2.70;;;1.20;;
7823;SDS011;3957;48.61947800;9.05303100;2022-07-05T05:03:07;1.63;;;0.90;;
7823;SDS011;3957;48.61947800;9.05303100;2022-07-05T05:04:28;1.95;;;1.13;;
7823;SDS011;3957;48.61947800;9.05303100;2022-07-05T05:05:49;1.77;;;1.38;;
7823;SDS011;3957;48.61947800;9.05303100;2022-07-05T05:07:10;1.05;;;1.02;;
7823;SDS011;3957;48.61947800;9.05303100;2022-07-05T05:08:30;1.35;;;1.13;;
7823;SDS011;3957;48.61947800;9.05303100;2022-07-05T05:09:52;1.73;;;1.15;;
7823;SDS011;3957;48.61947800;9.05303100;2022-07-05T05:11:13;1.37;;;1.00;;
7823;SDS011;3957;48.61947800;9.05303100;2022-07-05T05:12:33;1.83;;;1.25;;
7823;SDS011;3957;48.61947800;9.05303100;2022-07-05T05:13:54;2.50;;;0.93;;
7823;SDS011;3957;48.61947800;9.05303100;2022-07-05T05:15:15;1.15;;;1.05;;
7823;SDS011;3957;48.61947800;9.05303100;2022-07-05T05:16:36;1.60;;;0.90;;
7823;SDS011;3957;48.61947800;9.05303100;2022-07-05T05:17:56;1.60;;;0.90;;
7823;SDS011;3957;48.61947800;9.05303100;2022-07-05T05:19:17;1.65;;;1.02;;
7823;SDS011;3957;48.61947800;9.05303100;2022-07-05T05:20:38;1.30;;;1.00;;
7823;SDS011;3957;48.61947800;9.05303100;2022-07-05T05:21:59;1.08;;;0.98;;
7823;SDS011;3957;48.61947800;9.05303100;2022-07-05T05:23:19;2.33;;;1.13;;
7823;SDS011;3957;48.61947800;9.05303100;2022-07-05T05:24:40;1.40;;;1.00;;
7823;SDS011;3957;48.61947800;9.05303100;2022-07-05T05:26:01;1.30;;;1.00;;
7823;SDS011;3957;48.61947800;9.05303100;2022-07-05T05:27:22;2.13;;;1.05;;
7823;SDS011;3957;48.61947800;9.05303100;2022-07-05T05:28:43;1.85;;;1.10;;
7823;SDS011;3957;48.61947800;9.05303100;2022-07-05T05:30:04;1.20;;;1.10;;
7823;SDS011;3957;48.61947800;9.05303100;2022-07-05T05:31:25;1.50;;;1.02;;
7823;SDS011;3957;48.61947800;9.05303100;2022-07-05T05:32:46;2.35;;;1.10;;
7823;SDS011;3957;48.61947800;9.05303100;2022-07-05T05:34:07;1.35;;;1.20;;
7823;SDS011;3957;48.61947800;9.05303100;2022-07-05T05:35:27;1.03;;;0.90;;
7823;SDS011;3957;48.61947800;9.05303100;2022-07-05T05:36:48;1.10;;;1.00;;
7823;SDS011;3957;48.61947800;9.05303100;2022-07-05T05:38:09;1.10;;;1.00;;
7823;SDS011;3957;48.61947800;9.05303100;2022-07-05T05:39:30;1.35;;;1.25;;
7823;SDS011;3957;48.61947800;9.05303100;2022-07-05T05:40:50;2.80;;;1.10;;
7823;SDS011;3957;48.61947800;9.05303100;2022-07-05T05:42:11;1.80;;;1.07;;
7823;SDS011;3957;48.61947800;9.05303100;2022-07-05T05:43:32;2.20;;;1.00;;
7823;SDS011;3957;48.61947800;9.05303100;2022-07-05T05:44:53;1.13;;;0.88;;
7823;SDS011;3957;48.61947800;9.05303100;2022-07-05T05:46:14;1.42;;;1.02;;
7823;SDS011;3957;48.61947800;9.05303100;2022-07-05T05:47:42;1.60;;;1.20;;
7823;SDS011;3957;48.61947800;9.05303100;2022-07-05T05:49:13;1.38;;;1.13;;
7823;SDS011;3957;48.61947800;9.05303100;2022-07-05T05:50:35;2.40;;;1.23;;
7823;SDS011;3957;48.61947800;9.05303100;2022-07-05T05:51:57;1.60;;;1.05;;
7823;SDS011;3957;48.61947800;9.05303100;2022-07-05T05:53:18;1.60;;;1.00;;
7823;SDS011;3957;48.61947800;9.05303100;2022-07-05T05:54:39;1.80;;;1.25;;
7823;SDS011;3957;48.61947800;9.05303100;2022-07-05T05:55:59;1.88;;;1.20;;
7823;SDS011;3957;48.61947800;9.05303100;2022-07-05T05:57:20;1.25;;;1.02;;
7823;SDS011;3957;48.61947800;9.05303100;2022-07-05T05:58:41;2.05;;;1.17;;
7823;SDS011;3957;48.61947800;9.05303100;2022-07-05T06:00:05;1.10;;;1.00;;
7823;SDS011;3957;48.61947800;9.05303100;2022-07-05T06:01:32;0.90;;;0.90;;
7823;SDS011;3957;48.61947800;9.05303100;2022-07-05T06:02:53;2.92;;;1.50;;
7823;SDS011;3957;48.61947800;9.05303100;2022-07-05T06:04:13;0.93;;;0.93;;
7823;SDS011;3957;48.61947800;9.05303100;2022-07-05T06:05:34;2.28;;;0.98;;
7823;SDS011;3957;48.61947800;9.05303100;2022-07-05T06:06:55;2.03;;;1.10;;
7823;SDS011;3957;48.61947800;9.05303100;2022-07-05T06:08:16;1.08;;;0.80;;
7823;SDS011;3957;48.61947800;9.05303100;2022-07-05T06:09:38;1.98;;;0.95;;
7823;SDS011;3957;48.61947800;9.05303100;2022-07-05T06:10:59;1.73;;;1.20;;
7823;SDS011;3957;48.61947800;9.05303100;2022-07-05T06:12:19;1.93;;;0.97;;
7823;SDS011;3957;48.61947800;9.05303100;2022-07-05T06:13:40;1.33;;;0.90;;
7823;SDS011;3957;48.61947800;9.05303100;2022-07-05T06:15:01;2.10;;;0.95;;
7823;SDS011;3957;48.61947800;9.05303100;2022-07-05T06:16:22;1.48;;;0.80;;
7823;SDS011;3957;48.61947800;9.05303100;2022-07-05T06:17:42;1.75;;;0.90;;
7823;SDS011;3957;48.61947800;9.05303100;2022-07-05T06:19:04;1.20;;;0.80;;
7823;SDS011;3957;48.61947800;9.05303100;2022-07-05T06:20:25;1.30;;;0.70;;
7823;SDS011;3957;48.61947800;9.05303100;2022-07-05T06:21:47;0.80;;;0.70;;
7823;SDS011;3957;48.61947800;9.05303100;2022-07-05T06:23:08;1.08;;;0.90;;
7823;SDS011;3957;48.61947800;9.05303100;2022-07-05T06:24:29;1.83;;;0.90;;
7823;SDS011;3957;48.61947800;9.05303100;2022-07-05T06:25:49;1.77;;;0.90;;
7823;SDS011;3957;48.61947800;9.05303100;2022-07-05T06:27:10;1.05;;;0.80;;
7823;SDS011;3957;48.61947800;9.05303100;2022-07-05T06:28:31;0.80;;;0.77;;
7823;SDS011;3957;48.61947800;9.05303100;2022-07-05T06:29:53;0.73;;;0.73;;
7823;SDS011;3957;48.61947800;9.05303100;2022-07-05T06:31:13;1.80;;;0.88;;
7823;SDS011;3957;48.61947800;9.05303100;2022-07-05T06:32:34;1.40;;;0.73;;
7823;SDS011;3957;48.61947800;9.05303100;2022-07-05T06:33:55;0.95;;;0.70;;
7823;SDS011;3957;48.61947800;9.05303100;2022-07-05T06:35:16;1.65;;;0.93;;
7823;SDS011;3957;48.61947800;9.05303100;2022-07-05T06:36:37;1.50;;;0.90;;
7823;SDS011;3957;48.61947800;9.05303100;2022-07-05T06:37:59;0.70;;;0.70;;
7823;SDS011;3957;48.61947800;9.05303100;2022-07-05T06:39:21;0.85;;;0.80;;
7823;SDS011;3957;48.61947800;9.05303100;2022-07-05T06:40:42;0.98;;;0.80;;
7823;SDS011;3957;48.61947800;9.05303100;2022-07-05T06:42:04;1.27;;;0.80;;
7823;SDS011;3957;48.61947800;9.05303100;2022-07-05T06:43:25;1.02;;;0.80;;
7823;SDS011;3957;48.61947800;9.05303100;2022-07-05T06:44:56;1.48;;;0.80;;
7823;SDS011;3957;48.61947800;9.05303100;2022-07-05T06:46:17;1.75;;;0.93;;
7823;SDS011;3957;48.61947800;9.05303100;2022-07-05T06:47:38;1.30;;;0.90;;
7823;SDS011;3957;48.61947800;9.05303100;2022-07-05T06:48:59;2.00;;;0.98;;
7823;SDS011;3957;48.61947800;9.05303100;2022-07-05T06:50:20;1.60;;;0.93;;
7823;SDS011;3957;48.61947800;9.05303100;2022-07-05T06:51:40;3.20;;;1.25;;
7823;SDS011;3957;48.61947800;9.05303100;2022-07-05T06:53:04;3.83;;;1.58;;
7823;SDS011;3957;48.61947800;9.05303100;2022-07-05T06:54:25;0.93;;;0.80;;
7823;SDS011;3957;48.61947800;9.05303100;2022-07-05T06:55:46;1.38;;;0.80;;
7823;SDS011;3957;48.61947800;9.05303100;2022-07-05T06:57:07;2.22;;;1.00;;
7823;SDS011;3957;48.61947800;9.05303100;2022-07-05T06:58:28;1.27;;;0.88;;
7823;SDS011;3957;48.61947800;9.05303100;2022-07-05T06:59:49;2.05;;;0.80;;
7823;SDS011;3957;48.61947800;9.05303100;2022-07-05T07:01:10;0.82;;;0.70;;
7823;SDS011;3957;48.61947800;9.05303100;2022-07-05T07:02:31;1.33;;;0.90;;
7823;SDS011;3957;48.61947800;9.05303100;2022-07-05T07:03:52;1.08;;;0.90;;
7823;SDS011;3957;48.61947800;9.05303100;2022-07-05T07:05:13;1.92;;;0.88;;
7823;SDS011;3957;48.61947800;9.05303100;2022-07-05T07:06:34;1.10;;;0.77;;
7823;SDS011;3957;48.61947800;9.05303100;2022-07-05T07:07:54;1.88;;;1.17;;
7823;SDS011;3957;48.61947800;9.05303100;2022-07-05T07:09:34;1.13;;;1.00;;
7823;SDS011;3957;48.61947800;9.05303100;2022-07-05T07:10:55;1.77;;;0.93;;
7823;SDS011;3957;48.61947800;9.05303100;2022-07-05T07:12:15;1.60;;;1.00;;
7823;SDS011;3957;48.61947800;9.05303100;2022-07-05T07:13:36;1.20;;;0.80;;
7823;SDS011;3957;48.61947800;9.05303100;2022-07-05T07:14:57;1.20;;;1.10;;
7823;SDS011;3957;48.61947800;9.05303100;2022-07-05T07:16:17;2.78;;;0.98;;
7823;SDS011;3957;48.61947800;9.05303100;2022-07-05T07:17:38;1.63;;;1.10;;
7823;SDS011;3957;48.61947800;9.05303100;2022-07-05T07:18:59;1.05;;;0.95;;